Time;durP1;ratioP1;P1;durP2;ratioP2;P2;SDS_P1;SDS_P2;PMS_P1;PMS_P2;Temp;Humidity;BMP_temperature;BMP_pressure;BME280_temperature;BME280_humidity;BME280_pressure;Samples;Min_cycle;Max_cycle;Signal;HPM_P1;HPM_P2
2023/04/20 00:02:06;;;;;;;2.30;2.10;;;18.70;55.70;19.30;101163.00;;;;5028036;28;20269;-51
2023/04/20 00:04:32;;;;;;;3.07;2.40;;;18.60;55.70;19.30;101162.00;;;;5027658;28;20175;-50
2023/04/20 00:06:58;;;;;;;2.67;2.30;;;18.70;55.90;19.30;101158.00;;;;5027703;28;20218;-51
2023/04/20 00:09:25;;;;;;;3.00;2.10;;;18.60;56.00;19.30;101157.00;;;;5027718;28;20680;-51
2023/04/20 00:11:51;;;;;;;2.33;2.13;;;18.60;56.00;19.30;101163.00;;;;5027966;28;20727;-51
2023/04/20 00:14:17;;;;;;;2.60;2.40;;;18.60;56.10;19.30;101145.00;;;;5028179;28;20261;-50
2023/04/20 00:16:43;;;;;;;2.40;2.20;;;18.60;56.20;19.30;101150.00;;;;5031229;28;20210;-51
2023/04/20 00:19:09;;;;;;;2.67;2.37;;;18.60;56.30;19.20;101143.00;;;;5031186;28;20553;-50
2023/04/20 00:21:35;;;;;;;2.40;2.20;;;18.60;56.20;19.20;101131.00;;;;5030884;28;20264;-51
2023/04/20 00:24:00;;;;;;;2.70;2.20;;;18.50;56.20;19.20;101066.00;;;;5029647;28;20262;-51
2023/04/20 00:26:26;;;;;;;3.63;2.30;;;18.50;56.30;19.20;101128.00;;;;5030968;28;20693;-51
2023/04/20 00:28:52;;;;;;;2.40;2.20;;;18.50;56.30;19.20;101120.00;;;;5031311;28;20175;-52
2023/04/20 00:31:18;;;;;;;2.70;2.30;;;18.40;56.20;19.10;101126.00;;;;5031237;28;20183;-50
2023/04/20 00:33:46;;;;;;;2.27;2.07;;;18.40;56.30;19.10;101115.00;;;;5030894;28;20487;-51
2023/04/20 00:36:12;;;;;;;2.30;2.03;;;18.40;56.30;19.10;101102.00;;;;5029744;28;20207;-51
2023/04/20 00:38:38;;;;;;;2.50;2.13;;;18.40;56.40;19.10;101100.00;;;;5030874;28;20246;-50
2023/04/20 00:41:03;;;;;;;2.50;2.00;;;18.40;56.30;19.10;101100.00;;;;5031124;28;20197;-51
2023/04/20 00:43:29;;;;;;;2.37;2.20;;;18.40;56.30;19.10;101093.00;;;;5030623;28;20211;-51
2023/04/20 00:45:55;;;;;;;2.20;2.00;;;18.40;56.40;19.10;101101.00;;;;5030993;28;20194;-51
2023/04/20 00:48:21;;;;;;;2.17;2.00;;;18.40;56.40;19.00;101089.00;;;;5031610;28;20242;-51
2023/04/20 00:50:46;;;;;;;2.33;2.10;;;18.40;56.30;19.00;101094.00;;;;5032065;28;20263;-51
2023/04/20 00:53:12;;;;;;;2.40;2.20;;;18.30;56.40;19.00;101026.00;;;;5034374;28;20240;-51
2023/04/20 00:55:38;;;;;;;2.60;2.23;;;18.30;56.50;19.00;101086.00;;;;5021596;28;20247;-50
2023/04/20 00:58:05;;;;;;;2.00;1.90;;;18.30;56.50;18.90;101089.00;;;;5030624;28;20221;-51
2023/04/20 01:00:31;;;;;;;2.30;2.10;;;18.30;56.60;18.90;101089.00;;;;5029084;28;20726;-50
2023/04/20 01:02:57;;;;;;;2.40;2.20;;;18.30;56.50;18.90;101011.00;;;;5030404;28;20216;-51
2023/04/20 01:05:23;;;;;;;2.40;2.20;;;18.30;56.50;18.90;101082.00;;;;5030599;28;20175;-51
2023/04/20 01:07:49;;;;;;;2.13;1.93;;;18.30;56.50;18.90;101068.00;;;;5029005;28;20209;-51
2023/04/20 01:10:15;;;;;;;2.40;2.20;;;18.30;56.40;18.90;101003.00;;;;5030499;28;20198;-51
2023/04/20 01:12:41;;;;;;;2.20;2.10;;;18.20;56.30;18.90;101077.00;;;;5030265;28;20182;-50
2023/04/20 01:15:07;;;;;;;2.60;2.20;;;18.20;56.40;18.80;101073.00;;;;5030301;28;20233;-50
2023/04/20 01:17:33;;;;;;;2.40;2.13;;;18.20;56.50;18.80;101073.00;;;;5029916;28;20287;-52
2023/04/20 01:19:59;;;;;;;2.30;2.10;;;18.20;56.60;18.80;101061.00;;;;5030171;28;20182;-52
2023/04/20 01:22:25;;;;;;;2.23;2.03;;;18.20;57.10;18.80;101069.00;;;;5030264;28;20214;-50
2023/04/20 01:24:51;;;;;;;2.83;2.30;;;18.10;56.50;18.80;101047.00;;;;5024995;28;20192;-51
2023/04/20 01:27:17;;;;;;;2.37;2.17;;;18.10;56.50;18.80;101064.00;;;;5023234;28;20202;-52
2023/04/20 01:29:43;;;;;;;2.50;2.30;;;18.10;56.40;18.80;101054.00;;;;5029862;28;20640;-52
2023/04/20 01:32:09;;;;;;;2.93;2.30;;;18.10;56.50;18.80;101057.00;;;;5038551;28;20171;-52
2023/04/20 01:34:35;;;;;;;2.33;2.13;;;18.10;56.60;18.80;101052.00;;;;5033984;28;20248;-51
2023/04/20 01:37:01;;;;;;;3.53;2.00;;;18.10;56.50;18.80;101054.00;;;;5030493;28;20625;-51
2023/04/20 01:39:27;;;;;;;2.20;2.00;;;18.10;56.50;18.70;101049.00;;;;5032544;28;20293;-52
2023/04/20 01:41:53;;;;;;;2.70;2.10;;;18.10;56.50;18.80;101050.00;;;;5031251;28;20209;-51
2023/04/20 01:44:18;;;;;;;2.40;2.20;;;18.10;56.50;18.80;101051.00;;;;5022863;28;20178;-51
2023/04/20 01:46:44;;;;;;;2.33;2.17;;;18.10;56.60;18.70;101046.00;;;;5039946;28;20198;-51
2023/04/20 01:49:10;;;;;;;2.30;2.10;;;18.10;56.50;18.70;101051.00;;;;5039967;28;20181;-52
2023/04/20 01:51:36;;;;;;;2.40;2.20;;;18.10;56.50;18.70;101042.00;;;;5029669;28;20285;-52
2023/04/20 01:54:01;;;;;;;2.13;1.93;;;18.10;56.60;18.70;101038.00;;;;5029474;28;20167;-51
2023/04/20 01:56:27;;;;;;;2.40;2.20;;;18.10;56.60;18.70;101037.00;;;;5029277;28;20195;-51
2023/04/20 01:58:53;;;;;;;2.30;2.10;;;18.10;56.60;18.70;101026.00;;;;5029462;28;20631;-52
2023/04/20 02:01:19;;;;;;;2.30;2.10;;;18.10;56.60;18.70;101027.00;;;;5029550;28;20306;-51
2023/04/20 02:03:45;;;;;;;2.00;1.90;;;18.00;56.50;18.70;101025.00;;;;5029167;28;20170;-51
2023/04/20 02:06:11;;;;;;;2.27;2.03;;;18.00;56.70;18.70;101017.00;;;;5029505;28;20174;-51
2023/04/20 02:08:36;;;;;;;2.17;2.07;;;18.00;56.60;18.60;101006.00;;;;5029468;28;20796;-52
2023/04/20 02:11:02;;;;;;;2.43;2.10;;;18.00;56.60;18.60;101003.00;;;;5029316;28;20236;-52
2023/04/20 02:13:28;;;;;;;2.10;2.00;;;18.00;56.60;18.60;101004.00;;;;5034690;28;20403;-53
2023/04/20 02:15:54;;;;;;;2.30;2.10;;;18.00;56.70;18.60;101003.00;;;;5033332;28;20727;-52
2023/04/20 02:18:20;;;;;;;2.10;2.00;;;17.90;56.60;18.60;101004.00;;;;5033432;28;20295;-52
2023/04/20 02:20:46;;;;;;;2.30;2.20;;;17.90;56.70;18.60;101000.00;;;;5028995;28;20185;-52
2023/04/20 02:23:12;;;;;;;2.30;2.10;;;17.90;56.70;18.60;101003.00;;;;5028577;28;20577;-51
2023/04/20 02:25:38;;;;;;;2.27;2.07;;;17.90;56.70;18.60;100996.00;;;;5028862;28;20200;-50
2023/04/20 02:28:04;;;;;;;2.20;2.00;;;17.90;56.70;18.50;100990.00;;;;5028873;28;20213;-51
2023/04/20 02:30:30;;;;;;;2.00;1.90;;;17.90;56.80;18.50;100985.00;;;;5028765;28;20190;-51
2023/04/20 02:32:55;;;;;;;2.10;2.00;;;17.90;56.80;18.50;100987.00;;;;5028575;28;20309;-51
2023/04/20 02:35:21;;;;;;;2.40;2.07;;;17.90;56.90;18.50;100977.00;;;;5028563;28;20186;-52
2023/04/20 02:37:47;;;;;;;2.30;2.10;;;17.80;56.80;18.50;100980.00;;;;5026877;28;20207;-52
2023/04/20 02:40:13;;;;;;;2.00;1.90;;;17.80;56.80;18.50;100973.00;;;;5029048;28;20259;-52
2023/04/20 02:42:39;;;;;;;2.43;2.20;;;17.80;56.70;18.50;100976.00;;;;5028617;28;20220;-50
2023/04/20 02:45:05;;;;;;;2.20;2.00;;;17.80;57.00;18.50;100963.00;;;;5028952;28;20545;-51
2023/04/20 02:47:31;;;;;;;2.23;2.10;;;17.80;56.90;18.40;100985.00;;;;5029004;28;20214;-50
2023/04/20 02:49:57;;;;;;;2.20;2.00;;;17.80;56.80;18.40;100968.00;;;;5028852;28;20169;-50
2023/04/20 02:52:22;;;;;;;2.20;2.10;;;17.80;56.70;18.20;100965.00;;;;5028509;28;20193;-51
2023/04/20 02:54:48;;;;;;;2.20;2.00;;;17.70;56.90;18.40;100956.00;;;;5028499;28;20174;-52
2023/04/20 02:57:14;;;;;;;2.40;2.20;;;17.70;56.90;18.40;100957.00;;;;5028511;28;20573;-50
2023/04/20 02:59:40;;;;;;;2.10;2.00;;;17.70;57.00;18.30;100967.00;;;;5028409;28;20211;-50
2023/04/20 03:02:05;;;;;;;2.17;1.97;;;17.70;57.00;18.30;100958.00;;;;5028496;28;20263;-50
2023/04/20 03:04:31;;;;;;;2.20;2.00;;;17.70;56.90;18.30;100959.00;;;;5028289;28;20249;-50
2023/04/20 03:06:57;;;;;;;2.10;2.00;;;17.70;56.90;18.30;100958.00;;;;5028374;28;20676;-50
2023/04/20 03:09:23;;;;;;;2.40;2.20;;;17.70;56.90;18.30;100957.00;;;;5028182;28;20717;-51
2023/04/20 03:11:49;;;;;;;1.97;1.87;;;17.60;56.90;17.90;100949.00;;;;5028467;28;20183;-51
2023/04/20 03:14:15;;;;;;;2.20;2.00;;;17.60;56.90;18.30;100946.00;;;;5028172;28;20252;-51
2023/04/20 03:16:41;;;;;;;2.00;1.90;;;17.60;56.90;18.20;100943.00;;;;5028143;28;20678;-52
2023/04/20 03:19:06;;;;;;;2.13;2.00;;;17.50;57.00;18.20;100952.00;;;;5028558;28;20178;-50
2023/04/20 03:21:32;;;;;;;2.00;1.90;;;17.50;57.00;18.20;100945.00;;;;5028377;28;20197;-51
2023/04/20 03:23:59;;;;;;;2.37;2.17;;;17.60;56.90;18.20;100949.00;;;;5028470;28;20178;-51
2023/04/20 03:26:25;;;;;;;2.33;2.13;;;17.60;56.90;18.20;100936.00;;;;5027981;28;20222;-51
2023/04/20 03:28:51;;;;;;;2.40;2.20;;;17.60;56.90;18.20;100944.00;;;;5028409;28;20645;-50
2023/04/20 03:31:17;;;;;;;2.30;2.10;;;17.60;56.90;18.20;100937.00;;;;5029140;28;20237;-50
2023/04/20 03:33:42;;;;;;;3.23;2.60;;;17.50;56.90;18.20;100932.00;;;;5040780;28;20183;-51
2023/04/20 03:36:08;;;;;;;2.20;2.00;;;17.50;57.50;18.20;100932.00;;;;5028156;28;20181;-51
2023/04/20 03:38:34;;;;;;;2.40;2.20;;;17.50;57.30;18.20;100929.00;;;;5030945;28;20237;-50
2023/04/20 03:41:00;;;;;;;2.30;2.10;;;17.50;57.20;18.20;100937.00;;;;5029625;28;20182;-50
2023/04/20 03:43:26;;;;;;;2.10;1.90;;;17.50;57.10;18.20;100931.00;;;;5028427;28;20294;-51
2023/04/20 03:45:52;;;;;;;2.10;2.00;;;17.50;56.90;18.20;100922.00;;;;5033248;28;20191;-50
2023/04/20 03:48:17;;;;;;;1.97;1.87;;;17.50;56.80;18.10;100921.00;;;;5044850;28;20192;-50
2023/04/20 03:50:43;;;;;;;3.33;2.20;;;17.50;56.80;18.10;100918.00;;;;5040761;28;20177;-51
2023/04/20 03:53:09;;;;;;;2.43;1.93;;;17.40;56.70;18.10;100919.00;;;;5033391;28;20209;-51
2023/04/20 03:55:35;;;;;;;2.10;1.90;;;17.40;56.70;18.10;100922.00;;;;5033648;28;20189;-51
2023/04/20 03:58:00;;;;;;;2.37;2.17;;;17.50;56.80;18.10;100921.00;;;;5033397;28;20217;-50
2023/04/20 04:00:26;;;;;;;2.30;2.10;;;17.50;56.70;17.90;100923.00;;;;5032113;28;20272;-50
2023/04/20 04:02:52;;;;;;;2.37;2.10;;;17.40;56.50;18.10;100913.00;;;;5032908;28;20198;-50
2023/04/20 04:05:17;;;;;;;3.90;2.10;;;17.40;56.50;18.10;100919.00;;;;5033163;28;20685;-51
2023/04/20 04:07:43;;;;;;;2.30;2.10;;;17.30;56.30;18.10;100912.00;;;;5032969;28;20207;-53
2023/04/20 04:10:09;;;;;;;2.47;2.27;;;17.40;56.30;18.00;100910.00;;;;5033044;28;20175;-51
2023/04/20 04:12:35;;;;;;;2.27;2.03;;;17.30;56.10;18.00;100910.00;;;;5033086;28;20189;-52
2023/04/20 04:15:01;;;;;;;2.27;2.13;;;17.30;56.10;18.00;100913.00;;;;5032903;28;20179;-51
2023/04/20 04:17:27;;;;;;;2.37;2.17;;;17.30;56.00;18.00;100907.00;;;;5031785;28;20197;-50
2023/04/20 04:19:53;;;;;;;2.47;2.27;;;17.40;56.10;18.00;100907.00;;;;5032763;28;20675;-50
2023/04/20 04:22:18;;;;;;;2.50;2.30;;;17.30;55.90;18.00;100906.00;;;;5019150;28;20211;-50
2023/04/20 04:24:44;;;;;;;3.53;2.60;;;17.40;55.90;18.00;100908.00;;;;5031023;28;20180;-51
2023/04/20 04:27:12;;;;;;;2.97;2.40;;;17.30;55.80;17.90;100911.00;;;;5032423;28;20213;-51
2023/04/20 04:29:40;;;;;;;2.87;2.27;;;17.30;55.80;17.90;100902.00;;;;5032007;28;20183;-51
2023/04/20 04:32:06;;;;;;;3.03;2.20;;;17.30;55.80;17.90;100901.00;;;;5031737;28;20691;-52
2023/04/20 04:34:33;;;;;;;2.47;2.13;;;17.30;55.70;17.90;100908.00;;;;5032418;28;20187;-52
2023/04/20 04:37:00;;;;;;;3.50;2.37;;;17.30;55.70;17.90;100905.00;;;;5032821;28;20256;-52
2023/04/20 04:39:26;;;;;;;2.60;2.40;;;17.20;55.50;17.90;100904.00;;;;5032751;28;20671;-52
2023/04/20 04:41:52;;;;;;;2.70;2.30;;;17.20;55.50;17.90;100901.00;;;;5032436;28;20582;-51
2023/04/20 04:44:18;;;;;;;2.60;2.40;;;17.30;55.60;17.90;100899.00;;;;5031646;28;20177;-50
2023/04/20 04:46:44;;;;;;;4.63;2.50;;;17.20;55.40;17.90;100898.00;;;;5031516;28;20207;-51
2023/04/20 04:49:10;;;;;;;5.10;2.57;;;17.30;55.60;17.90;100905.00;;;;5032357;28;20180;-50
2023/04/20 04:51:36;;;;;;;4.37;2.60;;;17.30;55.60;17.90;100896.00;;;;5031648;28;20188;-51
2023/04/20 04:54:02;;;;;;;2.57;2.37;;;17.20;55.60;17.90;100900.00;;;;5024135;28;20183;-51
2023/04/20 04:56:28;;;;;;;4.40;2.70;;;17.30;55.70;17.90;100893.00;;;;5031693;28;20704;-51
2023/04/20 04:58:53;;;;;;;3.67;2.57;;;17.30;55.60;17.90;100900.00;;;;5031835;28;20199;-51
2023/04/20 05:01:20;;;;;;;5.23;2.50;;;17.20;55.50;17.90;100903.00;;;;5031011;28;20182;-50
2023/04/20 05:03:46;;;;;;;2.73;2.30;;;17.20;55.50;17.90;100890.00;;;;5031319;28;20299;-51
2023/04/20 05:06:11;;;;;;;3.47;2.27;;;17.20;55.50;17.90;100902.00;;;;5022999;28;20257;-51
2023/04/20 05:08:37;;;;;;;2.60;2.40;;;17.20;55.50;17.90;100890.00;;;;5031737;28;20626;-51
2023/04/20 05:11:03;;;;;;;2.77;2.47;;;17.20;55.50;17.80;100890.00;;;;5032014;28;20185;-50
2023/04/20 05:13:28;;;;;;;2.87;2.30;;;17.20;55.60;17.80;100900.00;;;;5031362;28;20184;-51
2023/04/20 05:15:54;;;;;;;3.00;2.50;;;17.20;55.60;17.80;100894.00;;;;5031365;28;20184;-50
2023/04/20 05:18:20;;;;;;;4.07;2.40;;;17.20;55.60;17.80;100817.00;;;;5030420;28;20206;-50
2023/04/20 05:20:46;;;;;;;2.60;2.40;;;17.20;55.50;17.80;100901.00;;;;5031626;28;20210;-51
2023/04/20 05:23:12;;;;;;;2.50;2.30;;;17.10;55.50;17.80;100898.00;;;;5031749;28;20246;-55
2023/04/20 05:25:37;;;;;;;2.43;2.23;;;17.20;55.60;17.80;100906.00;;;;5033526;28;20639;-50
2023/04/20 05:28:03;;;;;;;2.57;2.37;;;17.10;55.50;17.80;100897.00;;;;5031603;28;20193;-51
2023/04/20 05:30:29;;;;;;;2.40;2.13;;;17.10;55.50;17.80;100907.00;;;;5032107;28;20265;-50
2023/04/20 05:32:55;;;;;;;3.63;2.60;;;17.10;55.60;17.80;100909.00;;;;5045207;28;20175;-51
2023/04/20 05:35:21;;;;;;;4.03;2.40;;;17.10;55.50;17.70;100901.00;;;;5038883;28;20557;-51
2023/04/20 05:37:47;;;;;;;2.27;2.07;;;17.10;55.50;17.70;100898.00;;;;5034115;28;20208;-53
2023/04/20 05:40:12;;;;;;;3.60;2.50;;;17.10;55.50;17.70;100892.00;;;;5033044;28;20189;-53
2023/04/20 05:42:38;;;;;;;2.67;2.47;;;17.00;55.40;17.70;100896.00;;;;5033180;28;20299;-51
2023/04/20 05:45:05;;;;;;;3.57;2.30;;;17.10;56.20;17.70;100894.00;;;;5032583;28;20185;-49
2023/04/20 05:47:31;;;;;;;3.40;2.20;;;17.00;55.50;17.70;100898.00;;;;5045985;28;20207;-51
2023/04/20 05:49:56;;;;;;;2.40;2.20;;;17.00;55.50;17.70;100895.00;;;;5037960;28;20168;-53
2023/04/20 05:52:22;;;;;;;2.40;2.20;;;17.00;55.50;17.70;100904.00;;;;5033814;28;20813;-52
2023/04/20 05:54:48;;;;;;;2.50;2.20;;;17.00;55.50;17.70;100900.00;;;;5028967;28;20183;-50
2023/04/20 05:57:14;;;;;;;3.30;2.20;;;17.00;55.50;17.70;100897.00;;;;5027454;28;20742;-51
2023/04/20 05:59:40;;;;;;;2.50;2.30;;;17.00;55.50;17.70;100897.00;;;;5030762;28;20181;-51
2023/04/20 06:02:06;;;;;;;3.07;2.40;;;17.00;55.60;17.60;100899.00;;;;5029682;28;20206;-51
2023/04/20 06:04:32;;;;;;;2.77;2.40;;;17.00;55.60;17.60;100900.00;;;;5030214;28;20203;-52
2023/04/20 06:06:59;;;;;;;2.53;2.20;;;17.00;55.60;17.60;100899.00;;;;5030925;28;20321;-51
2023/04/20 06:09:24;;;;;;;2.53;2.30;;;17.00;55.60;17.60;100896.00;;;;5031077;28;20179;-52
2023/04/20 06:11:50;;;;;;;2.40;2.20;;;17.00;55.70;17.60;100905.00;;;;5030382;28;20177;-51
2023/04/20 06:14:16;;;;;;;2.50;2.30;;;16.90;55.50;17.60;100887.00;;;;5029568;28;20175;-51
2023/04/20 06:16:42;;;;;;;2.60;2.40;;;16.90;55.50;17.60;100889.00;;;;5030000;28;20202;-52
2023/04/20 06:19:07;;;;;;;2.60;2.40;;;16.90;55.60;17.60;100883.00;;;;5030580;28;20182;-53
2023/04/20 06:21:36;;;;;;;2.33;2.13;;;16.90;55.60;17.60;100888.00;;;;5026850;28;20184;-51
2023/04/20 06:24:02;;;;;;;2.27;2.13;;;16.90;55.50;17.60;100880.00;;;;5028099;28;20179;-51
2023/04/20 06:26:28;;;;;;;2.53;2.33;;;16.90;55.60;17.60;100888.00;;;;5036396;28;20276;-51
2023/04/20 06:28:53;;;;;;;4.13;2.23;;;16.90;55.60;17.60;100892.00;;;;5031291;28;20201;-51
2023/04/20 06:31:19;;;;;;;2.47;2.27;;;16.80;55.50;17.50;100895.00;;;;5029443;28;20175;-50
2023/04/20 06:33:45;;;;;;;2.37;2.17;;;16.90;55.60;17.50;100890.00;;;;5030212;28;20183;-51
2023/04/20 06:36:11;;;;;;;2.47;2.27;;;16.90;55.60;17.50;100887.00;;;;5029669;28;20550;-51
2023/04/20 06:38:37;;;;;;;2.53;2.33;;;16.90;55.60;17.50;100901.00;;;;5030235;28;20690;-51
2023/04/20 06:41:03;;;;;;;2.50;2.30;;;16.90;55.70;17.50;100887.00;;;;5030161;28;20175;-51
2023/04/20 06:43:29;;;;;;;2.50;2.30;;;16.80;56.20;17.50;100899.00;;;;5029177;28;20727;-51
2023/04/20 06:45:55;;;;;;;2.17;2.07;;;16.80;56.20;17.50;100893.00;;;;5029878;28;20187;-51
2023/04/20 06:48:21;;;;;;;2.87;2.27;;;16.80;55.60;17.50;100882.00;;;;5029854;28;20261;-51
2023/04/20 06:50:48;;;;;;;2.07;1.97;;;16.80;55.70;17.50;100892.00;;;;5029608;28;20555;-51
2023/04/20 06:53:14;;;;;;;2.40;2.20;;;16.80;55.70;17.50;100886.00;;;;5029115;28;20166;-51
2023/04/20 06:55:40;;;;;;;2.30;2.10;;;16.80;55.70;17.50;100882.00;;;;5029540;28;20182;-51
2023/04/20 06:58:06;;;;;;;2.47;2.27;;;16.70;55.60;17.50;100891.00;;;;5029615;28;20198;-51
2023/04/20 07:00:31;;;;;;;2.30;2.13;;;16.80;55.70;17.40;100885.00;;;;5029653;28;20184;-51
2023/04/20 07:02:57;;;;;;;2.50;2.30;;;16.80;55.70;17.40;100883.00;;;;5029340;28;20736;-51
2023/04/20 07:05:23;;;;;;;2.47;2.27;;;16.80;55.70;17.40;100881.00;;;;5028963;28;20167;-51
2023/04/20 07:07:49;;;;;;;2.40;2.20;;;16.70;55.60;17.40;100884.00;;;;5029714;28;20196;-51
2023/04/20 07:10:14;;;;;;;2.13;2.00;;;16.70;55.70;17.40;100881.00;;;;5029560;28;20176;-51
2023/04/20 07:12:40;;;;;;;2.27;2.10;;;16.70;55.60;17.40;100884.00;;;;5029224;28;20187;-51
2023/04/20 07:15:07;;;;;;;2.40;2.20;;;16.70;55.70;17.40;100890.00;;;;5028472;28;20175;-51
2023/04/20 07:17:33;;;;;;;2.57;2.30;;;16.70;55.70;17.40;100882.00;;;;5029207;28;20207;-51
2023/04/20 07:20:07;;;;;;;2.10;2.00;;;16.70;55.70;17.40;100876.00;;;;5029530;28;20182;-51
2023/04/20 07:22:36;;;;;;;2.20;2.00;;;16.70;55.70;17.40;100885.00;;;;5030402;28;20324;-51
2023/04/20 07:25:07;;;;;;;2.17;2.07;;;16.70;55.70;17.40;100874.00;;;;5030267;28;20178;-51
2023/04/20 07:27:37;;;;;;;2.23;2.03;;;16.70;55.70;17.40;100888.00;;;;5033512;28;20199;-51
2023/04/20 07:30:05;;;;;;;2.53;2.10;;;16.70;55.80;17.40;100871.00;;;;5032745;28;20650;-51
2023/04/20 07:32:31;;;;;;;2.67;2.30;;;16.70;55.80;17.40;100885.00;;;;5034799;28;20184;-51
2023/04/20 07:34:57;;;;;;;2.30;2.10;;;16.60;55.70;17.30;100878.00;;;;5045190;28;20205;-51
2023/04/20 07:37:23;;;;;;;2.40;2.20;;;16.60;55.70;17.30;100879.00;;;;5034974;28;20229;-51
2023/04/20 07:39:52;;;;;;;2.10;2.00;;;16.60;55.80;17.30;100880.00;;;;5036543;28;20247;-51
2023/04/20 07:42:18;;;;;;;2.43;2.23;;;16.60;55.80;17.30;100888.00;;;;5034109;28;20556;-50
2023/04/20 07:44:44;;;;;;;2.33;2.10;;;16.60;55.80;17.30;100885.00;;;;5034862;28;20178;-51
2023/04/20 07:47:10;;;;;;;2.13;2.00;;;16.60;55.90;17.30;100862.00;;;;5042647;28;20199;-50
2023/04/20 07:49:37;;;;;;;2.30;2.13;;;16.60;55.90;17.30;100878.00;;;;5035312;28;20637;-50
2023/04/20 07:52:03;;;;;;;2.20;2.10;;;16.60;55.90;17.30;100880.00;;;;5033443;28;20179;-50
2023/04/20 07:54:29;;;;;;;1.90;1.80;;;16.60;55.90;17.30;100881.00;;;;5032795;28;20182;-51
2023/04/20 07:56:55;;;;;;;2.43;1.97;;;16.60;55.90;17.30;100867.00;;;;5032975;28;20203;-51
2023/04/20 07:59:21;;;;;;;2.00;1.90;;;16.60;55.90;17.30;100882.00;;;;5032789;28;20732;-50
2023/04/20 08:01:47;;;;;;;2.20;2.00;;;16.60;55.90;17.30;100883.00;;;;5026024;28;20639;-51
2023/04/20 08:04:13;;;;;;;2.10;2.00;;;16.50;55.90;17.30;100869.00;;;;5031455;28;20757;-51
2023/04/20 08:06:38;;;;;;;2.43;2.10;;;16.60;56.00;17.30;100875.00;;;;5038318;28;20206;-50
2023/04/20 08:09:04;;;;;;;3.13;2.23;;;16.50;56.00;17.30;100875.00;;;;5035560;28;20171;-51
2023/04/20 08:11:30;;;;;;;2.80;2.10;;;16.50;56.00;17.30;100865.00;;;;5033975;28;20179;-50
2023/04/20 08:13:55;;;;;;;2.20;2.00;;;16.50;56.00;17.20;100790.00;;;;5031838;28;20194;-50
2023/04/20 08:16:21;;;;;;;2.47;2.20;;;16.50;56.10;17.20;100865.00;;;;5031583;28;20176;-51
2023/04/20 08:18:47;;;;;;;2.60;2.00;;;16.50;56.20;17.20;100868.00;;;;5031745;28;20182;-51
2023/04/20 08:21:13;;;;;;;2.20;2.00;;;16.50;56.10;17.20;100862.00;;;;5023893;28;20548;-51
2023/04/20 08:23:39;;;;;;;2.10;2.00;;;16.50;56.10;17.20;100856.00;;;;5018441;28;20670;-50
2023/04/20 08:26:04;;;;;;;2.27;2.17;;;16.50;56.20;17.20;100859.00;;;;5030890;28;20179;-51
2023/04/20 08:28:30;;;;;;;2.10;2.00;;;16.50;56.20;17.20;100860.00;;;;5029012;28;20309;-50
2023/04/20 08:30:56;;;;;;;2.50;1.93;;;16.50;56.30;17.20;100865.00;;;;5022474;28;20210;-50
2023/04/20 08:33:21;;;;;;;2.13;1.97;;;16.50;56.40;17.20;100859.00;;;;5023036;28;20190;-52
2023/04/20 08:35:50;;;;;;;2.30;2.10;;;16.50;56.40;17.20;100865.00;;;;5020117;28;20442;-51
2023/04/20 08:38:16;;;;;;;2.30;2.10;;;16.50;56.40;17.20;100857.00;;;;5027401;28;20566;-50
2023/04/20 08:40:42;;;;;;;2.00;1.90;;;16.50;56.50;17.20;100856.00;;;;5034244;28;20186;-52
2023/04/20 08:43:07;;;;;;;2.23;2.07;;;16.50;56.50;17.20;100827.00;;;;5029591;28;20218;-52
2023/04/20 08:45:33;;;;;;;4.50;2.30;;;16.50;56.40;17.20;100858.00;;;;5025620;28;20249;-49
2023/04/20 08:48:02;;;;;;;7.50;2.57;;;16.50;56.50;17.20;100860.00;;;;5026835;28;20265;-50
2023/04/20 08:50:28;;;;;;;7.67;2.50;;;16.50;57.20;17.20;100856.00;;;;5028407;28;20220;-50
2023/04/20 08:52:55;;;;;;;5.73;2.10;;;16.50;56.70;17.20;100849.00;;;;5020678;28;20226;-51
2023/04/20 08:55:21;;;;;;;2.53;2.00;;;16.50;56.70;17.20;100846.00;;;;5031192;28;20250;-51
2023/04/20 08:57:48;;;;;;;3.70;2.03;;;16.50;56.80;17.20;100843.00;;;;5030925;28;20216;-50
2023/04/20 09:00:14;;;;;;;3.23;2.00;;;16.50;56.80;17.20;100848.00;;;;5031682;28;20190;-49
2023/04/20 09:02:54;;;;;;;24.07;3.27;;;16.50;56.90;17.20;100849.00;;;;5023946;28;20208;-51
2023/04/20 09:05:30;;;;;;;8.87;2.47;;;16.40;57.60;17.10;100856.00;;;;5032550;28;20175;-50
2023/04/20 09:07:58;;;;;;;6.03;2.17;;;16.40;58.00;17.10;100856.00;;;;5032428;28;20274;-52
2023/04/20 09:10:24;;;;;;;9.43;2.40;;;16.40;59.40;17.10;100850.00;;;;5032319;28;20244;-52
2023/04/20 09:12:51;;;;;;;7.90;2.93;;;16.40;58.90;17.10;100845.00;;;;5032544;28;20182;-44
2023/04/20 09:15:26;;;;;;;4.27;2.40;;;16.40;58.70;17.10;100824.00;;;;5030885;28;20185;-48
2023/04/20 09:17:52;;;;;;;9.77;2.90;;;16.50;58.20;17.10;100839.00;;;;5031713;28;20639;-47
2023/04/20 09:20:31;;;;;;;12.60;2.20;;;16.50;58.20;17.10;100834.00;;;;5032453;28;20184;-47
2023/04/20 09:22:57;;;;;;;5.03;2.23;;;16.50;58.10;17.10;100832.00;;;;5032264;28;20654;-46
2023/04/20 09:25:25;;;;;;;4.30;2.30;;;16.50;58.20;17.20;100829.00;;;;5031233;28;20175;-46
2023/04/20 09:27:58;;;;;;;6.90;2.33;;;16.50;57.70;17.10;100838.00;;;;5031623;28;20560;-46
2023/04/20 09:30:24;;;;;;;2.93;2.30;;;16.50;57.60;17.20;100834.00;;;;5032616;28;20178;-46
2023/04/20 09:33:03;;;;;;;2.47;2.27;;;16.50;57.50;17.20;100821.00;;;;5035485;28;20542;-45
2023/04/20 09:35:29;;;;;;;5.77;2.40;;;16.40;57.30;17.10;100827.00;;;;5042185;28;20668;-46
2023/04/20 09:37:54;;;;;;;4.73;2.30;;;16.50;57.20;17.20;100833.00;;;;5030650;28;20199;-46
2023/04/20 09:40:21;;;;;;;2.50;2.30;;;16.40;57.10;17.20;100802.00;;;;5032833;28;20186;-46
2023/04/20 09:42:47;;;;;;;2.57;2.20;;;16.40;57.10;17.20;100818.00;;;;5031430;28;20201;-47
2023/04/20 09:45:15;;;;;;;5.80;2.20;;;16.40;56.90;17.20;100843.00;;;;5032927;28;20179;-47
2023/04/20 09:47:41;;;;;;;2.40;2.10;;;16.40;56.80;17.10;100813.00;;;;5038881;28;20202;-46
2023/04/20 09:50:10;;;;;;;5.17;2.20;;;16.40;56.60;17.10;100808.00;;;;5035032;28;20648;-46
2023/04/20 09:52:37;;;;;;;2.23;2.03;;;16.40;56.50;17.10;100815.00;;;;5034739;28;20179;-47
2023/04/20 09:55:04;;;;;;;3.97;2.10;;;16.40;56.40;16.90;100814.00;;;;5036472;28;20638;-47
2023/04/20 09:57:30;;;;;;;3.70;2.30;;;16.40;56.40;17.10;100810.00;;;;5029468;28;20225;-46
2023/04/20 09:59:56;;;;;;;3.00;2.20;;;16.30;56.30;17.10;100807.00;;;;5024092;28;20183;-47
2023/04/20 10:02:22;;;;;;;2.83;2.10;;;16.40;56.50;17.10;100817.00;;;;5031119;28;20261;-47
2023/04/20 10:04:57;;;;;;;3.43;2.00;;;16.40;56.50;17.10;100814.00;;;;5030412;28;20527;-47
2023/04/20 10:07:27;;;;;;;4.53;2.33;;;16.40;56.80;17.10;100816.00;;;;5032723;28;20191;-47
2023/04/20 10:10:10;;;;;;;6.10;2.20;;;16.40;57.10;17.10;100816.00;;;;5033879;28;20179;-47
2023/04/20 10:12:56;;;;;;;5.73;2.30;;;16.40;57.20;17.10;100819.00;;;;5032806;28;20273;-47
2023/04/20 10:15:23;;;;;;;4.90;2.10;;;16.40;57.50;17.10;100813.00;;;;5023573;28;20341;-47
2023/04/20 10:17:48;;;;;;;3.43;2.00;;;16.40;57.60;17.10;100819.00;;;;5020259;28;20736;-50
2023/04/20 10:20:25;;;;;;;2.73;2.20;;;16.40;57.70;17.20;100816.00;;;;5020040;28;20267;-47
2023/04/20 10:22:51;;;;;;;3.10;2.17;;;16.40;57.70;17.20;100812.00;;;;5021159;28;20292;-46
2023/04/20 10:25:20;;;;;;;4.23;2.30;;;16.40;57.80;17.20;100812.00;;;;5022318;28;20179;-47
2023/04/20 10:27:59;;;;;;;4.83;2.00;;;16.40;57.80;17.20;100807.00;;;;5018595;28;20230;-47
2023/04/20 10:30:28;;;;;;;3.87;2.17;;;16.40;57.90;17.20;100807.00;;;;5027642;28;20206;-47
2023/04/20 10:33:10;;;;;;;3.23;2.27;;;16.40;58.00;17.20;100812.00;;;;5034546;28;20187;-46
2023/04/20 10:35:46;;;;;;;4.50;2.00;;;16.40;58.00;17.20;100800.00;;;;5036857;28;20182;-47
2023/04/20 10:38:12;;;;;;;4.07;2.20;;;16.40;58.10;17.20;100793.00;;;;5031015;28;20235;-47
2023/04/20 10:40:38;;;;;;;4.43;2.20;;;16.50;58.20;17.20;100801.00;;;;5029681;28;20214;-46
2023/04/20 10:43:04;;;;;;;5.27;2.30;;;16.50;58.10;17.20;100794.00;;;;5030801;28;20225;-47
2023/04/20 10:45:37;;;;;;;4.63;2.23;;;16.50;58.20;17.30;100789.00;;;;5030974;28;20181;-48